createdAt,value
2019-05-21T00:00:25.675Z,99050.97
2019-05-21T00:02:53.568Z,99050.97
2019-05-21T00:05:40.237Z,99050.97
2019-05-21T00:08:07.819Z,99049.47
2019-05-21T00:13:13.339Z,99051.33
2019-05-21T00:15:40.910Z,99046.48
2019-05-21T00:18:27.511Z,99042.48
2019-05-21T00:20:55.034Z,99042.48
2019-05-21T00:23:22.714Z,99038.00
2019-05-21T00:28:43.285Z,99030.16
2019-05-21T00:31:10.864Z,99030.16
2019-05-21T00:33:38.524Z,99026.31
2019-05-21T00:36:24.934Z,99026.00
2019-05-21T00:38:52.475Z,99026.00
2019-05-21T00:41:20.345Z,99015.44
2019-05-21T00:43:48.131Z,99010.93
2019-05-21T00:46:17.352Z,99010.93
2019-05-21T00:49:03.973Z,99012.28
2019-05-21T00:51:31.478Z,99012.28
2019-05-21T00:53:59.057Z,99007.77
2019-05-21T00:56:26.697Z,99013.47
2019-05-21T00:59:13.059Z,99015.97
2019-05-21T01:01:40.985Z,99012.63
2019-05-21T01:04:08.509Z,99017.48
2019-05-21T01:06:54.862Z,99018.49
2019-05-21T01:09:22.414Z,99012.48
2019-05-21T01:11:50.133Z,99005.91
2019-05-21T01:14:36.404Z,99001.56
2019-05-21T01:17:03.954Z,99011.25
2019-05-21T01:19:50.612Z,99005.56
2019-05-21T01:22:36.919Z,99012.09
2019-05-21T01:25:04.668Z,99012.09
2019-05-21T01:27:32.228Z,99008.92
2019-05-21T01:29:59.881Z,99008.92
2019-05-21T01:32:27.455Z,99018.29
2019-05-21T01:34:55.346Z,99013.09
2019-05-21T01:37:34.636Z,99012.77
2019-05-21T01:39:52.285Z,99006.22
2019-05-21T01:42:20.103Z,99011.77
2019-05-21T01:44:49.317Z,99013.77
2019-05-21T01:47:16.997Z,99006.92
2019-05-21T01:49:44.510Z,99009.08
2019-05-21T01:52:30.920Z,99013.28
2019-05-21T01:54:58.520Z,99016.94
2019-05-21T01:57:44.919Z,99018.13
2019-05-21T02:00:12.579Z,99028.14
2019-05-21T02:02:40.135Z,99034.34
2019-05-21T02:05:32.979Z,99032.16
2019-05-21T02:07:55.838Z,99032.16
2019-05-21T02:13:23.335Z,99041.70
2019-05-21T02:15:41.150Z,99041.22
2019-05-21T02:18:09.926Z,99041.22
2019-05-21T02:20:37.508Z,99043.56
2019-05-21T02:23:05.161Z,99043.56
2019-05-21T02:25:32.822Z,99049.73
2019-05-21T02:28:19.224Z,99049.73
2019-05-21T02:30:47.005Z,99065.13
2019-05-21T02:33:33.726Z,99054.26
2019-05-21T02:36:01.476Z,99054.26
2019-05-21T02:38:47.895Z,99051.91
2019-05-21T02:41:15.553Z,99051.91
2019-05-21T02:43:43.185Z,99047.89
2019-05-21T02:46:10.810Z,99053.24
2019-05-21T02:48:57.241Z,99053.24
2019-05-21T02:51:43.651Z,99046.22
2019-05-21T03:02:38.670Z,99061.43
2019-05-21T03:05:06.332Z,99065.96
2019-05-21T03:07:33.973Z,99065.96
2019-05-21T03:10:20.419Z,99060.09
2019-05-21T03:12:48.214Z,99071.31
2019-05-21T03:15:15.956Z,99072.14
2019-05-21T03:17:43.619Z,99062.63
2019-05-21T03:20:11.289Z,99060.09
2019-05-21T03:22:40.587Z,99060.09
2019-05-21T03:25:08.260Z,99063.59
2019-05-21T03:27:36.187Z,99064.94
2019-05-21T03:30:03.947Z,99074.67
2019-05-21T03:32:31.641Z,99088.39
2019-05-21T03:34:59.232Z,99086.37
2019-05-21T03:37:45.660Z,99096.08
2019-05-21T03:40:13.269Z,99090.23
2019-05-21T03:42:41.300Z,99098.77
2019-05-21T03:45:27.727Z,99094.58
2019-05-21T03:47:55.289Z,99101.27
2019-05-21T03:50:23.070Z,99108.14
2019-05-21T03:52:50.998Z,99103.11
2019-05-21T03:55:37.369Z,99112.66
2019-05-21T03:58:05.095Z,99112.66
2019-05-21T04:00:51.516Z,99105.97
2019-05-21T04:03:19.264Z,99099.80
2019-05-21T04:08:38.540Z,99099.80
2019-05-21T04:11:06.091Z,99099.09
2019-05-21T04:13:52.555Z,99099.62
2019-05-21T04:16:39.001Z,99099.62
2019-05-21T04:19:25.422Z,99096.94
2019-05-21T04:22:11.828Z,99107.65
2019-05-21T04:24:39.578Z,99107.65
2019-05-21T04:29:39.805Z,99098.10
2019-05-21T04:34:55.710Z,99094.23
2019-05-21T04:37:23.266Z,99092.39
2019-05-21T04:40:09.711Z,99090.72
2019-05-21T04:42:37.824Z,99090.72
2019-05-21T04:45:05.415Z,99101.95
2019-05-21T04:47:51.834Z,99097.41
2019-05-21T04:50:19.579Z,99097.41
2019-05-21T04:53:05.989Z,99094.23
2019-05-21T04:55:33.640Z,99094.23
2019-05-21T04:58:20.116Z,99095.56
2019-05-21T05:00:47.804Z,99096.57
2019-05-21T05:03:34.262Z,99107.11
2019-05-21T05:06:13.718Z,99107.11
2019-05-21T05:08:31.216Z,99113.77
2019-05-21T05:11:17.644Z,99112.73
2019-05-21T05:13:45.303Z,99112.73
2019-05-21T05:16:31.753Z,99124.45
2019-05-21T05:19:01.252Z,99128.98
2019-05-21T05:21:47.594Z,99136.83
2019-05-21T05:24:15.321Z,99136.83
2019-05-21T05:29:48.164Z,99141.02
2019-05-21T05:32:15.783Z,99141.02
2019-05-21T05:35:02.233Z,99144.67
2019-05-21T05:40:45.019Z,99138.83
2019-05-21T05:43:14.680Z,99139.84
2019-05-21T05:45:43.645Z,99145.19
2019-05-21T05:48:11.307Z,99145.19
2019-05-21T05:50:47.273Z,99140.02
2019-05-21T05:53:13.555Z,99140.02
2019-05-21T05:55:41.192Z,99142.36
2019-05-21T05:58:08.803Z,99142.36
2019-05-21T06:00:37.292Z,99143.88
2019-05-21T06:03:12.553Z,99144.22
2019-05-21T06:05:40.450Z,99148.56
2019-05-21T06:08:08.018Z,99155.25
2019-05-21T06:10:39.819Z,99155.25
2019-05-21T06:13:05.314Z,99165.29
2019-05-21T06:15:32.992Z,99165.29
2019-05-21T06:18:00.638Z,99175.17
2019-05-21T06:20:30.542Z,99175.17
2019-05-21T06:22:58.116Z,99181.56
2019-05-21T06:25:28.433Z,99181.56
2019-05-21T06:27:56.279Z,99196.09
2019-05-21T06:30:24.019Z,99198.96
2019-05-21T06:32:51.605Z,99205.50
2019-05-21T06:35:19.522Z,99199.81
2019-05-21T06:37:47.215Z,99202.16
2019-05-21T06:40:14.774Z,99213.69
2019-05-21T06:42:42.465Z,99206.50
2019-05-21T06:45:13.155Z,99212.19
2019-05-21T06:47:41.074Z,99209.84
2019-05-21T06:50:08.978Z,99201.64
2019-05-21T06:52:36.606Z,99207.47
2019-05-21T06:55:07.256Z,99209.15
2019-05-21T06:57:34.878Z,99211.98
2019-05-21T07:00:02.526Z,99220.83
2019-05-21T07:02:30.433Z,99230.01
2019-05-21T07:04:58.107Z,99230.01
2019-05-21T07:07:26.025Z,99235.70
2019-05-21T07:09:54.255Z,99233.20
2019-05-21T07:12:24.919Z,99232.20
2019-05-21T07:14:52.508Z,99234.20
2019-05-21T07:17:20.889Z,99236.03
2019-05-21T07:19:48.516Z,99237.85
2019-05-21T07:22:16.076Z,99237.85
2019-05-21T07:24:43.956Z,99239.89
2019-05-21T07:27:11.560Z,99239.89
2019-05-21T07:29:39.156Z,99243.09
2019-05-21T07:32:07.051Z,99247.44
2019-05-21T07:34:34.738Z,99258.97
2019-05-21T07:37:02.379Z,99265.84
2019-05-21T07:39:30.251Z,99262.83
2019-05-21T07:41:59.091Z,99260.16
2019-05-21T07:44:29.320Z,99260.16
2019-05-21T07:46:57.248Z,99266.36
2019-05-21T07:49:24.949Z,99273.73
2019-05-21T07:51:52.609Z,99273.73
2019-05-21T07:54:20.482Z,99280.08
2019-05-21T07:56:48.135Z,99282.61
2019-05-21T07:59:18.199Z,99287.63
2019-05-21T08:01:46.078Z,99296.19
2019-05-21T08:04:13.991Z,99296.19
2019-05-21T08:06:44.307Z,99304.41
2019-05-21T08:09:14.483Z,99297.90
2019-05-21T08:11:46.187Z,99302.92
2019-05-21T08:14:12.355Z,99305.48
2019-05-21T08:16:40.191Z,99315.89
2019-05-21T08:19:07.799Z,99315.89
2019-05-21T08:21:35.349Z,99307.71
2019-05-21T08:24:03.284Z,99311.39
2019-05-21T08:26:32.238Z,99317.27
2019-05-21T08:28:59.817Z,99312.44
2019-05-21T08:31:27.680Z,99311.09
2019-05-21T08:33:56.478Z,99312.12
2019-05-21T08:36:24.042Z,99309.97
2019-05-21T08:38:55.913Z,99309.97
2019-05-21T08:41:24.633Z,99315.17
2019-05-21T08:43:52.154Z,99325.22
2019-05-21T08:46:20.141Z,99330.77
2019-05-21T08:48:47.720Z,99327.23
2019-05-21T08:51:15.387Z,99327.23
2019-05-21T08:53:43.234Z,99339.95
2019-05-21T08:56:10.902Z,99337.95
2019-05-21T08:58:38.586Z,99337.95
2019-05-21T09:01:06.504Z,99345.98
2019-05-21T09:03:34.220Z,99345.98
2019-05-21T09:06:01.821Z,99349.48
2019-05-21T09:08:29.708Z,99348.81
2019-05-21T09:10:57.260Z,99346.98
2019-05-21T09:13:24.919Z,99352.16
2019-05-21T09:15:52.779Z,99344.77
2019-05-21T09:18:20.727Z,99336.58
2019-05-21T09:20:48.346Z,99336.58
2019-05-21T09:23:16.182Z,99339.59
2019-05-21T09:25:43.796Z,99339.92
2019-05-21T09:28:11.742Z,99334.72
2019-05-21T09:30:39.639Z,99330.36
2019-05-21T09:33:07.265Z,99345.25
2019-05-21T09:35:34.870Z,99345.25
2019-05-21T09:38:05.799Z,99356.48
2019-05-21T09:40:33.416Z,99362.32
2019-05-21T09:43:01.757Z,99370.35
2019-05-21T09:45:31.408Z,99379.39
2019-05-21T09:47:59.085Z,99379.39
2019-05-21T09:50:26.700Z,99381.07
2019-05-21T09:52:54.600Z,99381.07
2019-05-21T09:55:22.339Z,99386.13
2019-05-21T09:58:02.568Z,99382.94
2019-05-21T10:00:47.946Z,99382.94
2019-05-21T10:03:17.412Z,99389.44
2019-05-21T10:05:44.985Z,99387.43
2019-05-21T10:08:15.591Z,99392.12
2019-05-21T10:10:43.200Z,99389.10
2019-05-21T10:13:12.960Z,99389.10
2019-05-21T10:15:40.853Z,99402.49
2019-05-21T10:18:14.313Z,99403.12
2019-05-21T10:20:48.654Z,99407.80
2019-05-21T10:23:17.691Z,99407.80
2019-05-21T10:25:46.820Z,99412.16
2019-05-21T10:28:14.798Z,99412.16
2019-05-21T10:30:42.415Z,99420.05
2019-05-21T10:33:10.019Z,99423.58
2019-05-21T10:35:38.003Z,99429.77
2019-05-21T10:38:05.581Z,99427.75
2019-05-21T10:40:36.635Z,99433.25
2019-05-21T10:43:04.556Z,99434.59
2019-05-21T10:45:38.179Z,99432.44
2019-05-21T10:48:11.133Z,99434.59
2019-05-21T10:50:39.136Z,99440.95
2019-05-21T10:53:10.444Z,99451.33
2019-05-21T10:55:44.324Z,99451.33
2019-05-21T10:58:10.595Z,99447.97
2019-05-21T11:00:41.795Z,99450.09
2019-05-21T11:03:13.886Z,99450.09
2019-05-21T11:05:44.781Z,99457.73
2019-05-21T11:08:24.939Z,99457.73
2019-05-21T11:10:52.193Z,99454.72
2019-05-21T11:13:20.085Z,99461.89
2019-05-21T11:16:11.847Z,99467.58
2019-05-21T11:18:43.978Z,99467.58
2019-05-21T11:21:16.436Z,99466.58
2019-05-21T11:23:44.185Z,99471.79
2019-05-21T11:26:19.041Z,99471.79
2019-05-21T11:28:50.438Z,99475.48
2019-05-21T11:31:20.511Z,99481.22
2019-05-21T11:33:48.530Z,99491.82
2019-05-21T11:36:16.157Z,99491.82
2019-05-21T11:38:48.580Z,99487.14
2019-05-21T11:41:19.022Z,99485.63
2019-05-21T11:43:46.646Z,99489.34
2019-05-21T11:46:14.568Z,99484.53
2019-05-21T11:48:48.127Z,99484.53
2019-05-21T11:51:12.794Z,99483.58
2019-05-21T11:53:41.416Z,99485.77
2019-05-21T11:56:11.064Z,99493.29
2019-05-21T11:58:39.756Z,99501.52
2019-05-21T12:01:08.083Z,99502.71
2019-05-21T12:03:37.483Z,99506.21
2019-05-21T12:06:26.500Z,99509.41
2019-05-21T12:09:02.053Z,99514.91
2019-05-21T12:11:34.163Z,99523.09
2019-05-21T12:14:05.936Z,99537.83
2019-05-21T12:16:33.800Z,99537.83
2019-05-21T12:19:01.417Z,99536.30
2019-05-21T12:21:32.110Z,99536.81
2019-05-21T12:24:01.714Z,99535.48
2019-05-21T12:26:29.362Z,99536.48
2019-05-21T12:28:56.945Z,99536.48
2019-05-21T12:31:24.777Z,99546.19
2019-05-21T12:33:57.148Z,99542.66
2019-05-21T12:36:28.751Z,99548.87
2019-05-21T12:39:11.549Z,99552.03
2019-05-21T12:41:25.902Z,99557.56
2019-05-21T12:43:53.744Z,99557.56
2019-05-21T12:46:21.409Z,99563.28
2019-05-21T12:48:49.013Z,99563.28
2019-05-21T12:51:19.889Z,99561.45
2019-05-21T12:53:47.551Z,99567.64
2019-05-21T12:56:15.373Z,99567.64
2019-05-21T12:58:43.266Z,99570.83
2019-05-21T13:01:10.921Z,99571.66
2019-05-21T13:03:38.629Z,99578.88
2019-05-21T13:06:06.625Z,99578.88
2019-05-21T13:08:34.286Z,99573.52
2019-05-21T13:11:02.316Z,99581.23
2019-05-21T13:13:30.203Z,99581.23
2019-05-21T13:16:03.544Z,99584.25
2019-05-21T13:18:36.372Z,99588.45
2019-05-21T13:21:08.564Z,99592.34
2019-05-21T13:23:38.483Z,99600.24
2019-05-21T13:26:08.525Z,99601.44
2019-05-21T13:28:35.704Z,99605.13
2019-05-21T13:31:03.336Z,99602.30
2019-05-21T13:33:31.294Z,99607.86
2019-05-21T13:35:59.184Z,99608.34
2019-05-21T13:38:26.799Z,99611.02
2019-05-21T13:40:56.261Z,99610.54
2019-05-21T13:43:24.107Z,99612.89
2019-05-21T13:45:56.071Z,99618.13
2019-05-21T13:48:23.800Z,99619.19
2019-05-21T13:51:02.816Z,99616.56
2019-05-21T13:53:26.231Z,99618.63
2019-05-21T13:55:55.107Z,99611.95
2019-05-21T13:58:22.827Z,99620.34
2019-05-21T14:00:56.217Z,99621.88
2019-05-21T14:03:24.161Z,99614.98
2019-05-21T14:05:51.815Z,99622.22
2019-05-21T14:08:22.665Z,99624.95
2019-05-21T14:10:50.481Z,99622.50
2019-05-21T14:13:27.951Z,99629.25
2019-05-21T14:15:55.629Z,99627.80
2019-05-21T14:18:23.506Z,99627.80
2019-05-21T14:20:51.160Z,99626.48
2019-05-21T14:23:23.122Z,99631.04
2019-05-21T14:25:48.457Z,99636.55
2019-05-21T14:28:19.068Z,99636.55
2019-05-21T14:30:46.745Z,99645.64
2019-05-21T14:33:21.111Z,99638.41
2019-05-21T14:35:46.143Z,99638.41
2019-05-21T14:38:13.715Z,99646.25
2019-05-21T14:40:41.617Z,99639.11
2019-05-21T14:43:13.456Z,99647.02
2019-05-21T14:45:42.278Z,99641.66
2019-05-21T14:48:10.089Z,99641.66
2019-05-21T14:50:38.778Z,99649.76
2019-05-21T14:53:06.375Z,99646.26
2019-05-21T14:55:38.598Z,99650.95
2019-05-21T14:58:10.935Z,99648.27
2019-05-21T15:00:38.759Z,99643.77
2019-05-21T15:03:06.479Z,99655.98
2019-05-21T15:05:37.206Z,99652.09
2019-05-21T15:08:06.938Z,99655.73
2019-05-21T15:10:47.764Z,99657.02
2019-05-21T15:13:06.465Z,99657.02
2019-05-21T15:15:35.965Z,99659.18
2019-05-21T15:18:04.431Z,99659.84
2019-05-21T15:20:55.557Z,99660.17
2019-05-21T15:23:23.218Z,99666.00
2019-05-21T15:25:50.869Z,99666.00
2019-05-21T15:28:24.023Z,99662.41
2019-05-21T15:30:51.632Z,99662.41
2019-05-21T15:33:31.336Z,99669.42
2019-05-21T15:36:07.156Z,99669.42
2019-05-21T15:38:50.157Z,99667.38
2019-05-21T15:41:24.867Z,99669.72
2019-05-21T15:43:57.481Z,99676.39
2019-05-21T15:46:25.150Z,99676.39
2019-05-21T15:48:55.179Z,99672.03
2019-05-21T15:51:23.332Z,99669.84
2019-05-21T15:53:51.064Z,99672.84
2019-05-21T15:56:18.716Z,99672.84
2019-05-21T15:58:49.162Z,99680.15
2019-05-21T16:01:19.414Z,99687.33
2019-05-21T16:03:47.037Z,99681.44
2019-05-21T16:06:17.578Z,99683.63
2019-05-21T16:08:45.157Z,99683.63
2019-05-21T16:11:27.377Z,99684.44
2019-05-21T16:13:42.335Z,99684.29
2019-05-21T16:16:09.943Z,99684.29
2019-05-21T16:18:37.870Z,99683.63
2019-05-21T16:21:08.494Z,99688.31
2019-05-21T16:23:36.084Z,99689.27
2019-05-21T16:26:03.743Z,99689.27
2019-05-21T16:28:33.600Z,99696.69
2019-05-21T16:31:06.792Z,99696.69
2019-05-21T16:33:34.818Z,99691.67
2019-05-21T16:36:05.537Z,99691.67
2019-05-21T16:38:33.156Z,99689.64
2019-05-21T16:41:00.732Z,99690.13
2019-05-21T16:43:30.239Z,99695.95
2019-05-21T16:46:04.891Z,99695.55
2019-05-21T16:48:32.586Z,99695.55
2019-05-21T16:51:00.493Z,99702.84
2019-05-21T16:53:34.311Z,99701.52
2019-05-21T16:56:02.233Z,99701.52
2019-05-21T16:58:30.379Z,99705.50
2019-05-21T17:00:58.244Z,99701.77
2019-05-21T17:03:26.865Z,99701.77
2019-05-21T17:05:59.118Z,99704.91
2019-05-21T17:08:28.113Z,99704.91
2019-05-21T17:10:55.773Z,99707.41
2019-05-21T17:13:32.864Z,99707.41
2019-05-21T17:16:00.450Z,99709.58
2019-05-21T17:18:30.199Z,99709.58
2019-05-21T17:21:07.149Z,99714.11
2019-05-21T17:23:37.502Z,99711.43
2019-05-21T17:26:13.338Z,99710.09
2019-05-21T17:28:39.284Z,99709.69
2019-05-21T17:31:09.130Z,99709.69
2019-05-21T17:33:37.575Z,99712.02
2019-05-21T17:36:06.418Z,99717.69
2019-05-21T17:38:33.999Z,99724.63
2019-05-21T17:41:01.966Z,99724.63
2019-05-21T17:43:29.602Z,99723.95
2019-05-21T17:46:01.103Z,99727.90
2019-05-21T17:48:31.091Z,99728.89
2019-05-21T17:51:00.705Z,99730.88
2019-05-21T17:53:28.736Z,99731.67
2019-05-21T17:56:03.482Z,99739.50
2019-05-21T17:58:31.136Z,99736.41
2019-05-21T18:01:04.012Z,99737.72
2019-05-21T18:03:32.044Z,99737.72
2019-05-21T18:06:00.198Z,99740.98
2019-05-21T18:08:28.114Z,99740.98
2019-05-21T18:10:55.856Z,99756.14
2019-05-21T18:13:23.476Z,99756.14
2019-05-21T18:15:56.843Z,99755.59
2019-05-21T18:18:24.995Z,99765.30
2019-05-21T18:20:55.795Z,99765.30
2019-05-21T18:23:38.310Z,99764.40
2019-05-21T18:26:05.894Z,99771.57
2019-05-21T18:28:36.858Z,99771.57
2019-05-21T18:31:07.318Z,99774.89
2019-05-21T18:33:35.175Z,99776.53
2019-05-21T18:36:09.021Z,99778.35
2019-05-21T18:38:38.420Z,99778.35
2019-05-21T18:41:15.629Z,99782.37
2019-05-21T18:43:43.362Z,99789.91
2019-05-21T18:46:11.359Z,99791.73
2019-05-21T18:48:40.885Z,99791.73
2019-05-21T18:51:08.456Z,99795.27
2019-05-21T18:53:36.478Z,99792.72
2019-05-21T18:56:04.089Z,99792.72
2019-05-21T18:58:31.766Z,99794.92
2019-05-21T19:00:59.630Z,99797.52
2019-05-21T19:03:34.475Z,99805.68
2019-05-21T19:06:02.443Z,99814.22
2019-05-21T19:08:30.169Z,99818.70
2019-05-21T19:10:57.933Z,99816.68
2019-05-21T19:13:25.952Z,99826.17
2019-05-21T19:15:55.464Z,99826.17
2019-05-21T19:18:23.089Z,99823.16
2019-05-21T19:20:50.992Z,99825.97
2019-05-21T19:23:21.840Z,99825.97
2019-05-21T19:25:53.060Z,99834.84
2019-05-21T19:28:30.330Z,99833.51
2019-05-21T19:30:57.922Z,99839.50
2019-05-21T19:33:25.914Z,99839.50
2019-05-21T19:35:55.207Z,99844.77
2019-05-21T19:38:25.129Z,99844.77
2019-05-21T19:40:55.993Z,99846.97
2019-05-21T19:43:48.710Z,99849.43
2019-05-21T19:46:14.138Z,99858.15
2019-05-21T19:49:00.494Z,99857.80
2019-05-21T19:51:46.956Z,99857.80
2019-05-21T19:54:14.721Z,99860.12
2019-05-21T19:56:42.475Z,99868.37
2019-05-21T19:59:28.891Z,99872.03
2019-05-21T20:04:50.171Z,99865.83
2019-05-21T20:10:24.606Z,99865.13
2019-05-21T20:13:11.014Z,99869.78
2019-05-21T20:15:58.416Z,99887.78
2019-05-21T20:18:44.785Z,99879.70
2019-05-21T20:21:31.227Z,99887.64
2019-05-21T20:27:05.840Z,99880.90
2019-05-21T20:32:40.269Z,99883.48
2019-05-21T20:35:49.280Z,99893.83
2019-05-21T20:38:15.088Z,99895.52
2019-05-21T20:43:34.637Z,99892.15
2019-05-21T20:46:21.093Z,99894.73
2019-05-21T20:49:07.534Z,99894.73
2019-05-21T20:54:59.132Z,99901.58
2019-05-21T21:05:47.392Z,99891.84
2019-05-21T21:08:15.159Z,99889.78
2019-05-21T21:13:23.677Z,99892.71
2019-05-21T21:21:23.337Z,99889.34
2019-05-21T21:42:36.722Z,99902.36
2019-05-21T21:45:04.417Z,99902.36
2019-05-21T21:47:32.088Z,99899.69
2019-05-21T21:50:18.540Z,99900.67
2019-05-21T21:53:05.272Z,99905.16
2019-05-21T21:55:51.706Z,99905.16
2019-05-21T21:58:19.479Z,99904.17
2019-05-21T22:14:31.914Z,99899.46
2019-05-21T22:17:18.291Z,99907.95
2019-05-21T22:22:39.208Z,99912.51
2019-05-21T22:25:08.866Z,99912.51
2019-05-21T22:27:38.931Z,99910.47
2019-05-21T22:30:06.758Z,99918.64
2019-05-21T22:35:08.629Z,99914.06
2019-05-21T22:37:36.411Z,99916.23
2019-05-21T22:40:04.115Z,99916.23
2019-05-21T22:42:50.524Z,99921.86
2019-05-21T22:48:25.322Z,99919.31
2019-05-21T22:50:53.002Z,99919.59
2019-05-21T22:53:21.192Z,99912.81
2019-05-21T22:56:07.600Z,99912.81
2019-05-21T23:01:27.499Z,99916.19
2019-05-21T23:04:13.930Z,99917.13
2019-05-21T23:09:44.118Z,99917.64
2019-05-21T23:12:18.191Z,99912.42
2019-05-21T23:17:48.753Z,99910.87
2019-05-21T23:25:44.234Z,99910.04
2019-05-21T23:28:14.054Z,99902.66
2019-05-21T23:30:41.712Z,99913.70
2019-05-21T23:46:11.409Z,99905.36
2019-05-21T23:53:48.319Z,99913.36
2019-05-21T23:56:34.979Z,99917.37
2019-05-21T23:59:02.897Z,99917.37
